Time;durP1;ratioP1;P1;durP2;ratioP2;P2;SDS_P1;SDS_P2;PMS_P1;PMS_P2;Temp;Humidity;BMP_temperature;BMP_pressure;BME280_temperature;BME280_humidity;BME280_pressure;Samples;Min_cycle;Max_cycle;Signal;HPM_P1;HPM_P2
2023/05/19 00:01:47;;;;;;;12.73;6.03;;;13.30;99.90;;;;;;5031062;28;20042;-68
2023/05/19 00:04:14;;;;;;;12.13;5.75;;;13.20;99.90;;;;;;5033145;28;20017;-68
2023/05/19 00:06:45;;;;;;;11.52;6.82;;;13.30;99.90;;;;;;5031504;28;20049;-68
2023/05/19 00:09:11;;;;;;;8.70;6.60;;;13.30;99.90;;;;;;5031491;28;20025;-68
2023/05/19 00:11:38;;;;;;;9.32;6.10;;;13.30;99.90;;;;;;5031371;28;20038;-68
2023/05/19 00:14:08;;;;;;;9.82;6.30;;;13.20;99.90;;;;;;5031766;28;20390;-68
2023/05/19 00:16:35;;;;;;;11.15;6.13;;;13.10;99.90;;;;;;5031696;28;20046;-68
2023/05/19 00:19:01;;;;;;;10.68;6.40;;;13.10;99.90;;;;;;5031223;28;20493;-68
2023/05/19 00:21:28;;;;;;;9.55;6.05;;;13.10;99.90;;;;;;5030812;28;20052;-68
2023/05/19 00:23:54;;;;;;;11.52;7.22;;;13.10;99.90;;;;;;5031513;28;20037;-68
2023/05/19 00:26:21;;;;;;;11.18;6.63;;;13.00;99.90;;;;;;5031990;28;20032;-68
2023/05/19 00:28:48;;;;;;;12.18;6.88;;;12.90;99.90;;;;;;5032503;28;20037;-68
2023/05/19 00:31:14;;;;;;;13.63;7.03;;;12.90;99.90;;;;;;5031895;28;20041;-68
2023/05/19 00:33:40;;;;;;;10.73;6.28;;;12.90;99.90;;;;;;5014609;28;20038;-68
2023/05/19 00:36:07;;;;;;;12.50;6.63;;;12.90;99.90;;;;;;5029686;28;20037;-68
2023/05/19 00:38:34;;;;;;;13.70;6.63;;;12.90;99.90;;;;;;5032469;28;20034;-68
2023/05/19 00:41:01;;;;;;;13.93;7.05;;;12.90;99.90;;;;;;5030566;28;20049;-68
2023/05/19 00:43:28;;;;;;;14.07;6.68;;;12.90;99.90;;;;;;5032525;28;20458;-68
2023/05/19 00:45:55;;;;;;;15.57;6.57;;;12.80;99.90;;;;;;5031431;28;20053;-68
2023/05/19 00:48:21;;;;;;;9.82;6.75;;;12.70;99.90;;;;;;5045609;28;20029;-68
2023/05/19 00:50:48;;;;;;;13.35;7.15;;;12.60;99.90;;;;;;5026136;28;20064;-68
2023/05/19 00:53:16;;;;;;;10.68;6.35;;;12.60;99.90;;;;;;5031089;28;20037;-68
2023/05/19 00:55:42;;;;;;;13.65;7.32;;;12.60;99.90;;;;;;5029024;28;20483;-68
2023/05/19 00:58:09;;;;;;;11.68;6.95;;;12.60;99.90;;;;;;5031004;28;20029;-68
2023/05/19 01:00:35;;;;;;;12.38;6.93;;;12.60;99.90;;;;;;5029197;28;20045;-68
2023/05/19 01:03:09;;;;;;;11.48;7.53;;;12.70;99.90;;;;;;5030653;28;20045;-68
2023/05/19 01:05:38;;;;;;;11.80;7.03;;;12.70;99.90;;;;;;5028718;28;20493;-68
2023/05/19 01:08:04;;;;;;;10.98;7.00;;;12.80;99.90;;;;;;5031018;28;20026;-68
2023/05/19 01:10:30;;;;;;;10.48;7.68;;;12.70;99.90;;;;;;5031798;28;20030;-68
2023/05/19 01:12:57;;;;;;;15.93;7.97;;;12.70;99.90;;;;;;5032077;28;20488;-68
2023/05/19 01:15:23;;;;;;;12.90;7.70;;;12.80;99.90;;;;;;5031045;28;20045;-68
2023/05/19 01:17:55;;;;;;;12.55;7.88;;;12.70;99.90;;;;;;5030655;28;20040;-68
2023/05/19 01:20:54;;;;;;;13.10;7.45;;;12.60;99.90;;;;;;5029868;28;20032;-68
2023/05/19 01:23:35;;;;;;;10.82;7.38;;;12.60;99.90;;;;;;4976667;28;20046;-68
2023/05/19 01:26:03;;;;;;;;;;;12.50;99.90;;;;;;4988610;28;20038;-68
2023/05/19 01:29:00;;;;;;;10.32;6.22;;;12.30;99.90;;;;;;4990380;28;19917;-68
2023/05/19 01:31:26;;;;;;;10.60;6.93;;;12.40;99.90;;;;;;4989708;28;20034;-68
2023/05/19 01:33:52;;;;;;;16.42;7.07;;;12.50;99.90;;;;;;4987864;28;20053;-69
2023/05/19 01:36:19;;;;;;;12.32;7.40;;;12.70;99.90;;;;;;4990093;28;20046;-68
2023/05/19 01:38:45;;;;;;;11.90;7.53;;;12.80;99.90;;;;;;4990316;28;20423;-68
2023/05/19 01:41:11;;;;;;;10.20;7.13;;;12.70;99.90;;;;;;4989938;28;20519;-68
2023/05/19 01:43:37;;;;;;;15.27;7.32;;;12.60;99.90;;;;;;4990246;28;20027;-69
2023/05/19 01:46:04;;;;;;;12.90;6.72;;;12.40;99.90;;;;;;4989786;28;20046;-68
2023/05/19 01:48:30;;;;;;;12.13;7.20;;;12.30;99.90;;;;;;4990436;28;20046;-68
2023/05/19 01:50:56;;;;;;;14.00;7.22;;;12.30;99.90;;;;;;4990032;28;20046;-68
2023/05/19 01:53:23;;;;;;;8.90;7.20;;;12.30;99.90;;;;;;4990379;28;20046;-68
2023/05/19 01:55:50;;;;;;;9.43;6.80;;;12.20;99.90;;;;;;4988362;28;20042;-68
2023/05/19 01:58:44;;;;;;;10.30;7.18;;;12.30;99.90;;;;;;4989721;28;20129;-68
2023/05/19 02:01:41;;;;;;;12.60;7.22;;;12.40;99.90;;;;;;5011220;28;20048;-69
2023/05/19 02:04:27;;;;;;;12.68;7.57;;;12.40;99.90;;;;;;5020610;28;20037;-68
2023/05/19 02:07:04;;;;;;;12.80;7.47;;;12.40;99.90;;;;;;5022400;28;20043;-68
2023/05/19 02:09:36;;;;;;;12.07;7.25;;;12.30;99.90;;;;;;5043115;28;20037;-68
2023/05/19 02:12:31;;;;;;;12.65;7.25;;;12.30;99.90;;;;;;5033554;28;20033;-68
2023/05/19 02:14:59;;;;;;;12.43;6.95;;;12.20;99.90;;;;;;5031715;28;20037;-68
2023/05/19 02:17:26;;;;;;;10.80;6.68;;;12.10;99.90;;;;;;5030711;28;20055;-69
2023/05/19 02:19:52;;;;;;;15.02;6.88;;;12.10;99.90;;;;;;5032281;28;20038;-68
2023/05/19 02:22:18;;;;;;;11.57;6.63;;;11.90;99.90;;;;;;5033485;28;20040;-68
2023/05/19 02:24:45;;;;;;;15.07;7.22;;;11.90;99.90;;;;;;5033572;28;20022;-68
2023/05/19 02:27:11;;;;;;;10.43;7.03;;;11.90;99.90;;;;;;5032877;28;20049;-68
2023/05/19 02:29:37;;;;;;;11.77;7.45;;;11.90;99.90;;;;;;5033330;28;20032;-68
2023/05/19 02:32:04;;;;;;;11.82;7.22;;;11.90;99.90;;;;;;5031552;28;20041;-69
2023/05/19 02:34:30;;;;;;;11.32;6.75;;;12.00;99.90;;;;;;5032263;28;20507;-68
2023/05/19 02:36:56;;;;;;;13.55;7.03;;;11.90;99.90;;;;;;5033579;28;20049;-68
2023/05/19 02:39:22;;;;;;;9.95;6.85;;;12.10;99.90;;;;;;5035003;28;20482;-68
2023/05/19 02:41:49;;;;;;;12.80;7.40;;;12.20;99.90;;;;;;5034523;28;20041;-69
2023/05/19 02:44:15;;;;;;;14.93;7.30;;;12.10;99.90;;;;;;5034220;28;20044;-68
2023/05/19 02:46:41;;;;;;;16.90;7.07;;;12.00;99.90;;;;;;5033727;28;20053;-68
2023/05/19 02:49:07;;;;;;;12.43;6.60;;;12.00;99.90;;;;;;5053195;28;20032;-68
2023/05/19 02:51:33;;;;;;;13.30;7.03;;;11.90;99.90;;;;;;5042438;28;20029;-68
2023/05/19 02:53:59;;;;;;;11.48;6.97;;;11.90;99.90;;;;;;5031533;28;20021;-68
2023/05/19 02:56:26;;;;;;;11.88;7.00;;;11.90;99.90;;;;;;5032429;28;20049;-68
2023/05/19 02:58:53;;;;;;;11.75;6.95;;;11.90;99.90;;;;;;5031064;28;20030;-68
2023/05/19 03:01:20;;;;;;;13.85;7.30;;;11.90;99.90;;;;;;5033639;28;20041;-68
2023/05/19 03:03:46;;;;;;;10.00;7.13;;;11.90;99.90;;;;;;5033953;28;20029;-68
2023/05/19 03:06:13;;;;;;;13.60;7.38;;;11.80;99.90;;;;;;5032942;28;20381;-68
2023/05/19 03:08:39;;;;;;;11.85;7.55;;;11.80;99.90;;;;;;5034052;28;20045;-69
2023/05/19 03:11:05;;;;;;;11.43;7.45;;;11.80;99.90;;;;;;5015812;28;20053;-68
2023/05/19 03:13:31;;;;;;;12.88;8.27;;;11.60;99.90;;;;;;5032897;28;20033;-68
2023/05/19 03:15:58;;;;;;;15.10;8.65;;;11.70;99.90;;;;;;5032687;28;20405;-68
2023/05/19 03:18:25;;;;;;;12.57;7.78;;;11.80;99.90;;;;;;5033395;28;20048;-69
2023/05/19 03:20:52;;;;;;;13.57;7.25;;;11.80;99.90;;;;;;5064530;28;20033;-68
2023/05/19 03:23:22;;;;;;;10.05;7.18;;;11.70;99.90;;;;;;5033081;28;20405;-68
2023/05/19 03:25:48;;;;;;;14.23;8.07;;;11.70;99.90;;;;;;5033715;28;20026;-68
2023/05/19 03:28:14;;;;;;;12.93;7.30;;;11.70;99.90;;;;;;5032534;28;20033;-68
2023/05/19 03:30:40;;;;;;;16.02;8.00;;;11.60;99.90;;;;;;5032923;28;20034;-68
2023/05/19 03:33:06;;;;;;;15.45;7.75;;;11.60;99.90;;;;;;5033102;28;20022;-68
2023/05/19 03:35:32;;;;;;;10.90;7.70;;;11.50;99.90;;;;;;5033314;28;20044;-68
2023/05/19 03:37:58;;;;;;;14.10;7.45;;;11.40;99.90;;;;;;5033780;28;20060;-68
2023/05/19 03:40:25;;;;;;;12.95;7.47;;;11.50;99.90;;;;;;5033232;28;20030;-68
2023/05/19 03:42:53;;;;;;;12.77;7.55;;;11.50;99.90;;;;;;5032122;28;20042;-69
2023/05/19 03:45:19;;;;;;;12.63;7.60;;;11.50;99.90;;;;;;5031967;28;20425;-69
2023/05/19 03:47:46;;;;;;;14.07;7.85;;;11.40;99.90;;;;;;5043059;28;20052;-68
2023/05/19 03:50:12;;;;;;;13.70;7.65;;;11.40;99.90;;;;;;5052669;28;20041;-69
2023/05/19 03:52:39;;;;;;;10.15;7.28;;;11.50;99.90;;;;;;5033034;28;20045;-68
2023/05/19 03:55:05;;;;;;;10.85;7.60;;;11.50;99.90;;;;;;5031671;28;20026;-68
2023/05/19 03:57:32;;;;;;;11.80;7.43;;;11.40;99.90;;;;;;5029645;28;20049;-68
2023/05/19 03:59:58;;;;;;;14.02;7.78;;;11.40;99.90;;;;;;5031514;28;20037;-68
2023/05/19 04:02:24;;;;;;;14.85;7.70;;;11.40;99.90;;;;;;5031051;28;20048;-68
2023/05/19 04:04:51;;;;;;;13.25;7.70;;;11.30;99.90;;;;;;5032901;28;20405;-68
2023/05/19 04:07:17;;;;;;;14.43;7.72;;;11.30;99.90;;;;;;5032901;28;20046;-68
2023/05/19 04:09:43;;;;;;;13.38;7.57;;;11.20;99.90;;;;;;5031149;28;20049;-68
2023/05/19 04:12:09;;;;;;;11.82;7.13;;;11.20;99.90;;;;;;5030989;28;20045;-68
2023/05/19 04:14:36;;;;;;;11.98;7.15;;;11.20;99.90;;;;;;5032074;28;20033;-68
2023/05/19 04:17:02;;;;;;;14.00;7.72;;;11.30;99.90;;;;;;5031728;28;20052;-68
2023/05/19 04:19:28;;;;;;;13.38;7.68;;;11.10;99.90;;;;;;5032827;28;20025;-68
2023/05/19 04:21:54;;;;;;;12.65;7.47;;;11.10;99.90;;;;;;5030896;28;20044;-68
2023/05/19 04:24:20;;;;;;;11.75;7.78;;;11.20;99.90;;;;;;5031653;28;20025;-68
2023/05/19 04:26:46;;;;;;;11.05;7.10;;;11.20;99.90;;;;;;5029265;28;20055;-68
2023/05/19 04:29:12;;;;;;;15.15;7.78;;;11.10;99.90;;;;;;5024995;28;20783;-68
2023/05/19 04:31:43;;;;;;;12.10;7.28;;;11.10;99.90;;;;;;5023833;28;20375;-68
2023/05/19 04:34:09;;;;;;;13.85;7.97;;;10.90;99.90;;;;;;5032645;28;20033;-68
2023/05/19 04:36:36;;;;;;;10.68;7.53;;;10.90;99.90;;;;;;5031979;28;20053;-68
2023/05/19 04:39:06;;;;;;;14.82;7.75;;;10.90;99.90;;;;;;5030478;28;20044;-68
2023/05/19 04:41:38;;;;;;;14.10;7.72;;;10.80;99.90;;;;;;5030513;28;20049;-68
2023/05/19 04:44:08;;;;;;;17.73;7.82;;;10.90;99.90;;;;;;5028603;28;20040;-68
2023/05/19 04:46:34;;;;;;;12.20;7.55;;;10.80;99.90;;;;;;5029373;28;20053;-68
2023/05/19 04:49:02;;;;;;;16.92;7.95;;;10.80;99.90;;;;;;5036958;28;21845;-68
2023/05/19 04:51:30;;;;;;;14.68;7.30;;;10.90;99.90;;;;;;5031765;28;20037;-68
2023/05/19 04:53:56;;;;;;;12.98;7.40;;;10.70;99.90;;;;;;5030405;28;20395;-68
2023/05/19 04:56:22;;;;;;;12.90;7.55;;;10.60;99.90;;;;;;5030549;28;20041;-68
2023/05/19 04:58:49;;;;;;;10.82;7.63;;;10.60;99.90;;;;;;5031587;28;20044;-68
2023/05/19 05:01:15;;;;;;;17.08;7.68;;;10.60;99.90;;;;;;5029204;28;20049;-68
2023/05/19 05:03:41;;;;;;;11.82;7.30;;;10.70;99.90;;;;;;5031920;28;20041;-68
2023/05/19 05:06:08;;;;;;;11.02;7.65;;;10.50;99.90;;;;;;5030263;28;20041;-68
2023/05/19 05:08:34;;;;;;;16.42;7.20;;;10.50;99.90;;;;;;5030917;28;20034;-68
2023/05/19 05:11:00;;;;;;;18.55;7.65;;;10.50;99.90;;;;;;5030661;28;20037;-68
2023/05/19 05:13:26;;;;;;;14.60;7.30;;;10.50;99.90;;;;;;5038716;28;20045;-68
2023/05/19 05:15:53;;;;;;;10.55;7.38;;;10.50;99.90;;;;;;5030374;28;20045;-70
2023/05/19 05:18:19;;;;;;;12.07;6.97;;;10.50;99.90;;;;;;5032026;28;20045;-69
2023/05/19 05:20:45;;;;;;;11.70;6.70;;;10.60;99.90;;;;;;5031506;28;20038;-69
2023/05/19 05:23:13;;;;;;;9.27;7.07;;;10.70;99.90;;;;;;5034127;28;20064;-69
2023/05/19 05:25:40;;;;;;;12.52;7.25;;;10.80;99.90;;;;;;5030352;28;20041;-69
2023/05/19 05:28:06;;;;;;;10.82;6.97;;;10.90;99.90;;;;;;5017490;28;20169;-68
2023/05/19 05:30:32;;;;;;;11.02;7.18;;;10.90;99.90;;;;;;5013288;28;20033;-69
2023/05/19 05:32:58;;;;;;;9.25;6.38;;;10.90;99.90;;;;;;5032012;28;20359;-69
2023/05/19 05:35:25;;;;;;;12.80;7.82;;;11.00;99.90;;;;;;5030503;28;20039;-69
2023/05/19 05:37:51;;;;;;;13.70;7.32;;;11.00;99.90;;;;;;5031928;28;20045;-69
2023/05/19 05:40:17;;;;;;;12.23;7.35;;;11.10;99.90;;;;;;5029973;28;20714;-69
2023/05/19 05:42:43;;;;;;;10.80;6.70;;;11.20;99.90;;;;;;5035618;28;20037;-70
2023/05/19 05:45:09;;;;;;;17.70;7.28;;;11.30;99.90;;;;;;5035280;28;20026;-69
2023/05/19 05:47:40;;;;;;;10.70;7.05;;;11.20;99.90;;;;;;5043826;28;20053;-69
2023/05/19 05:50:08;;;;;;;10.97;6.90;;;11.30;99.90;;;;;;5053753;28;20045;-69
2023/05/19 05:52:35;;;;;;;12.32;7.38;;;11.40;99.90;;;;;;5033409;28;20466;-69
2023/05/19 05:55:02;;;;;;;9.90;6.72;;;11.50;99.90;;;;;;5033137;28;20386;-69
2023/05/19 05:57:29;;;;;;;14.38;7.78;;;11.60;99.90;;;;;;5034308;28;20048;-69
2023/05/19 05:59:56;;;;;;;8.25;6.43;;;11.70;99.90;;;;;;5034283;28;20405;-69
2023/05/19 06:02:22;;;;;;;12.00;7.70;;;11.90;99.90;;;;;;5034710;28;20037;-69
2023/05/19 06:04:48;;;;;;;10.10;7.97;;;12.00;99.90;;;;;;5034028;28;20056;-68
2023/05/19 06:07:14;;;;;;;14.85;8.10;;;12.10;99.90;;;;;;5034383;28;20421;-68
2023/05/19 06:09:40;;;;;;;13.15;8.32;;;12.00;99.90;;;;;;5034390;28;20046;-68
2023/05/19 06:12:06;;;;;;;13.38;8.02;;;12.10;99.90;;;;;;5034883;28;20041;-68
2023/05/19 06:14:32;;;;;;;13.60;8.05;;;12.20;99.90;;;;;;5034968;28;20045;-68
2023/05/19 06:16:58;;;;;;;12.77;7.35;;;12.20;99.90;;;;;;5034129;28;20413;-68
2023/05/19 06:19:25;;;;;;;12.82;8.18;;;12.30;99.90;;;;;;5033421;28;20025;-69
2023/05/19 06:21:51;;;;;;;14.23;8.93;;;12.40;99.90;;;;;;5033491;28;20029;-68
2023/05/19 06:24:17;;;;;;;16.98;8.18;;;12.50;99.90;;;;;;5033840;28;20033;-69
2023/05/19 06:26:43;;;;;;;11.38;8.02;;;12.70;99.90;;;;;;5032554;28;20025;-68
2023/05/19 06:29:09;;;;;;;12.25;8.48;;;13.00;99.90;;;;;;5032628;28;20026;-68
2023/05/19 06:31:35;;;;;;;17.27;8.75;;;12.90;99.90;;;;;;5030814;28;20034;-68
2023/05/19 06:34:01;;;;;;;13.43;8.48;;;13.00;99.90;;;;;;5034527;28;20497;-68
2023/05/19 06:36:27;;;;;;;14.65;8.38;;;13.00;99.90;;;;;;5033683;28;20044;-68
2023/05/19 06:38:53;;;;;;;13.65;8.57;;;13.10;99.90;;;;;;5034369;28;20043;-68
2023/05/19 06:41:20;;;;;;;13.95;8.55;;;13.10;99.90;;;;;;5029345;28;20045;-68
2023/05/19 06:43:46;;;;;;;10.57;8.75;;;13.10;99.90;;;;;;5034352;28;20033;-68
2023/05/19 06:46:12;;;;;;;14.02;9.20;;;13.20;99.90;;;;;;5033618;28;20054;-68
2023/05/19 06:48:38;;;;;;;15.57;9.00;;;13.10;99.90;;;;;;5045593;28;20030;-68
2023/05/19 06:51:05;;;;;;;14.15;8.73;;;13.20;99.90;;;;;;5033454;28;20041;-68
2023/05/19 06:53:32;;;;;;;16.40;9.05;;;13.30;99.90;;;;;;5033828;28;20045;-68
2023/05/19 06:55:58;;;;;;;16.40;9.20;;;13.40;99.90;;;;;;5033822;28;20496;-68
2023/05/19 06:58:25;;;;;;;11.75;9.02;;;13.50;99.90;;;;;;5034432;28;20137;-68
2023/05/19 07:00:51;;;;;;;14.95;9.18;;;13.60;99.90;;;;;;5031168;28;20426;-68
2023/05/19 07:03:17;;;;;;;11.07;9.20;;;13.80;99.90;;;;;;5033386;28;20041;-68
2023/05/19 07:05:43;;;;;;;15.65;9.23;;;13.90;99.90;;;;;;5032258;28;20033;-68
2023/05/19 07:08:09;;;;;;;17.48;9.52;;;14.10;99.90;;;;;;5066261;28;20030;-68
2023/05/19 07:10:36;;;;;;;15.52;9.38;;;14.10;99.90;;;;;;5027401;28;20045;-68
2023/05/19 07:13:02;;;;;;;11.82;8.85;;;14.20;99.90;;;;;;5033245;28;20033;-68
2023/05/19 07:15:28;;;;;;;15.55;8.75;;;14.20;99.90;;;;;;5029989;28;20394;-69
2023/05/19 07:17:54;;;;;;;17.08;9.55;;;14.20;99.90;;;;;;5029495;28;20037;-68
2023/05/19 07:20:20;;;;;;;14.18;9.30;;;14.50;99.90;;;;;;5031671;28;20045;-68
2023/05/19 07:22:46;;;;;;;13.18;9.43;;;14.50;99.90;;;;;;5031984;28;20085;-68
2023/05/19 07:25:12;;;;;;;14.27;9.57;;;14.60;99.90;;;;;;5033438;28;20030;-68
2023/05/19 07:27:38;;;;;;;14.05;9.52;;;14.80;99.90;;;;;;5033944;28;20064;-68
2023/05/19 07:30:05;;;;;;;16.58;10.10;;;14.80;99.90;;;;;;5033022;28;20029;-68
2023/05/19 07:32:31;;;;;;;13.35;9.65;;;15.00;99.90;;;;;;5030557;28;20458;-69
2023/05/19 07:34:57;;;;;;;10.82;8.63;;;15.10;99.90;;;;;;5033378;28;20516;-69
2023/05/19 07:37:23;;;;;;;13.88;8.52;;;15.20;99.90;;;;;;5033125;28;20037;-69
2023/05/19 07:39:49;;;;;;;12.73;9.18;;;15.20;99.90;;;;;;5033713;28;20042;-69
2023/05/19 07:42:15;;;;;;;16.80;9.20;;;15.20;99.90;;;;;;5031958;28;20076;-69
2023/05/19 07:44:41;;;;;;;11.80;8.65;;;15.20;99.90;;;;;;5033558;28;20029;-69
2023/05/19 07:47:08;;;;;;;13.20;9.13;;;15.40;99.90;;;;;;5035985;28;20410;-68
2023/05/19 07:49:34;;;;;;;15.93;8.90;;;15.50;99.90;;;;;;5046799;28;20044;-69
2023/05/19 07:52:00;;;;;;;13.82;9.25;;;15.50;99.90;;;;;;5032733;28;20049;-68
2023/05/19 07:54:26;;;;;;;15.23;9.18;;;15.60;99.90;;;;;;5033057;28;20466;-68
2023/05/19 07:56:52;;;;;;;16.92;8.95;;;15.80;99.90;;;;;;5032678;28;20104;-68
2023/05/19 07:59:18;;;;;;;13.65;9.02;;;15.90;99.90;;;;;;5033127;28;20502;-68
2023/05/19 08:01:44;;;;;;;14.18;8.65;;;16.00;99.90;;;;;;5047713;28;20041;-68
2023/05/19 08:04:11;;;;;;;15.60;8.68;;;16.10;99.90;;;;;;5024151;28;20386;-68
2023/05/19 08:06:37;;;;;;;14.32;8.32;;;16.20;99.90;;;;;;5029798;28;20537;-71
2023/05/19 08:09:04;;;;;;;15.35;9.13;;;16.40;99.90;;;;;;5039779;28;20029;-69
2023/05/19 08:11:30;;;;;;;17.58;9.73;;;16.30;99.90;;;;;;5030257;28;20022;-69
2023/05/19 08:13:56;;;;;;;15.73;9.32;;;16.30;99.90;;;;;;5028950;28;20025;-70
2023/05/19 08:16:23;;;;;;;19.30;10.43;;;16.50;99.90;;;;;;5032192;28;20040;-69
2023/05/19 08:18:49;;;;;;;13.85;9.45;;;16.50;99.90;;;;;;5028446;28;20056;-69
2023/05/19 08:21:15;;;;;;;15.32;9.60;;;16.70;99.90;;;;;;5027229;28;20125;-69
2023/05/19 08:23:41;;;;;;;14.25;9.48;;;16.90;99.90;;;;;;5029350;28;20037;-70
2023/05/19 08:26:07;;;;;;;17.10;10.00;;;17.00;99.90;;;;;;5032542;28;20449;-69
2023/05/19 08:28:33;;;;;;;13.00;9.15;;;17.10;99.90;;;;;;5031133;28;20044;-69
2023/05/19 08:30:59;;;;;;;18.77;9.90;;;17.00;99.90;;;;;;5031500;28;20034;-69
2023/05/19 08:33:25;;;;;;;14.10;9.25;;;17.30;99.90;;;;;;5025610;28;20025;-69
2023/05/19 08:35:52;;;;;;;14.50;9.30;;;17.30;99.90;;;;;;5032079;28;20032;-70
2023/05/19 08:38:18;;;;;;;13.90;9.82;;;17.50;99.90;;;;;;5032389;28;20390;-69
2023/05/19 08:40:45;;;;;;;16.55;9.60;;;17.50;99.90;;;;;;5030989;28;20461;-70
2023/05/19 08:43:11;;;;;;;17.67;10.40;;;17.70;99.90;;;;;;5031318;28;20044;-70
2023/05/19 08:45:39;;;;;;;16.45;11.13;;;17.80;99.90;;;;;;5028089;28;20037;-70
2023/05/19 08:48:05;;;;;;;14.25;10.75;;;17.90;99.90;;;;;;5055197;28;20053;-71
2023/05/19 08:50:33;;;;;;;13.27;9.75;;;18.00;99.90;;;;;;5030457;28;20025;-70
2023/05/19 08:53:14;;;;;;;14.02;9.63;;;18.00;99.90;;;;;;5030899;28;20029;-70
2023/05/19 08:55:46;;;;;;;17.02;10.15;;;18.00;99.90;;;;;;5015162;28;20030;-69
2023/05/19 08:58:12;;;;;;;12.55;9.27;;;18.00;99.90;;;;;;5029418;28;20037;-70
2023/05/19 09:00:38;;;;;;;15.07;10.23;;;18.20;99.90;;;;;;5043568;28;20032;-70
2023/05/19 09:03:04;;;;;;;17.50;10.63;;;18.20;99.90;;;;;;5022982;28;20037;-69
2023/05/19 09:05:31;;;;;;;14.30;10.00;;;18.30;99.90;;;;;;5023387;28;20056;-69
2023/05/19 09:07:57;;;;;;;17.27;10.55;;;18.30;99.90;;;;;;5029232;28;20026;-69
2023/05/19 09:10:23;;;;;;;14.13;10.77;;;18.50;99.90;;;;;;5024944;28;20037;-69
2023/05/19 09:12:50;;;;;;;14.05;9.98;;;18.50;99.90;;;;;;5028817;28;20044;-70
2023/05/19 09:15:19;;;;;;;12.50;10.30;;;18.70;99.90;;;;;;5026414;28;20057;-70
2023/05/19 09:17:46;;;;;;;14.23;10.90;;;18.60;99.90;;;;;;5028142;28;20049;-70
2023/05/19 09:20:13;;;;;;;9.75;8.75;;;18.50;99.90;;;;;;5024922;28;20063;-70
2023/05/19 09:22:46;;;;;;;17.85;10.35;;;18.50;99.90;;;;;;5034922;28;20133;-70
2023/05/19 09:25:19;;;;;;;17.77;10.27;;;18.60;99.90;;;;;;5030659;28;20513;-70
2023/05/19 09:27:47;;;;;;;17.63;11.18;;;18.70;99.90;;;;;;5033061;28;20041;-69
2023/05/19 09:30:16;;;;;;;14.50;11.35;;;18.80;99.90;;;;;;5033663;28;20033;-70
2023/05/19 09:32:43;;;;;;;16.35;10.45;;;18.70;99.90;;;;;;5031134;28;20029;-70
2023/05/19 09:35:15;;;;;;;13.15;9.73;;;18.70;99.90;;;;;;5034388;28;20397;-70
2023/05/19 09:37:42;;;;;;;17.63;10.73;;;18.80;99.90;;;;;;5030994;28;20056;-70
2023/05/19 09:40:09;;;;;;;20.05;12.18;;;19.10;99.90;;;;;;5032035;28;20040;-70
2023/05/19 09:42:38;;;;;;;16.85;11.85;;;19.20;99.90;;;;;;5030697;28;20042;-70
2023/05/19 09:45:05;;;;;;;14.95;12.07;;;19.30;99.90;;;;;;5033257;28;20034;-69
2023/05/19 09:47:38;;;;;;;14.98;12.02;;;19.20;99.90;;;;;;5035931;28;20046;-70
2023/05/19 09:50:11;;;;;;;18.55;14.15;;;19.00;99.90;;;;;;5034054;28;20026;-70
2023/05/19 09:52:37;;;;;;;17.90;11.27;;;19.20;99.90;;;;;;5033523;28;20049;-70
2023/05/19 09:55:05;;;;;;;15.10;10.88;;;19.30;99.90;;;;;;5066013;28;20406;-70
2023/05/19 09:57:35;;;;;;;14.73;11.27;;;19.30;99.90;;;;;;5033082;28;20045;-70
2023/05/19 10:00:13;;;;;;;15.85;12.77;;;19.40;99.90;;;;;;5033894;28;20112;-70
2023/05/19 10:02:43;;;;;;;17.65;12.93;;;19.50;99.80;;;;;;5029540;28;20040;-70
2023/05/19 10:05:15;;;;;;;14.40;11.87;;;19.60;99.70;;;;;;5033861;28;20389;-70
2023/05/19 10:07:43;;;;;;;17.50;12.02;;;19.50;98.40;;;;;;5048414;28;20042;-70
2023/05/19 10:10:11;;;;;;;18.83;12.05;;;19.60;99.00;;;;;;5034160;28;20037;-70
2023/05/19 10:12:38;;;;;;;13.93;11.55;;;19.70;99.80;;;;;;5032203;28;20040;-69
2023/05/19 10:15:07;;;;;;;15.43;12.55;;;19.90;99.90;;;;;;5033209;28;20025;-70
2023/05/19 10:17:33;;;;;;;15.23;11.73;;;20.00;99.70;;;;;;5014722;28;20060;-70
2023/05/19 10:19:59;;;;;;;22.42;12.77;;;19.90;99.90;;;;;;5032624;28;20398;-70
2023/05/19 10:22:27;;;;;;;13.65;11.80;;;19.90;98.70;;;;;;5048350;28;20044;-70
2023/05/19 10:24:54;;;;;;;11.35;10.25;;;19.90;98.00;;;;;;5033492;28;20046;-70
2023/05/19 10:27:20;;;;;;;16.35;11.05;;;20.00;96.70;;;;;;5030721;28;20030;-70
2023/05/19 10:29:48;;;;;;;15.07;10.77;;;19.90;96.40;;;;;;5031619;28;20029;-70
2023/05/19 10:32:17;;;;;;;12.13;10.90;;;20.00;96.10;;;;;;5047643;28;20057;-70
2023/05/19 10:34:58;;;;;;;14.38;11.52;;;20.10;96.00;;;;;;5032140;28;20030;-70
2023/05/19 10:37:44;;;;;;;13.88;10.80;;;20.20;95.90;;;;;;5032793;28;20026;-70
2023/05/19 10:40:27;;;;;;;15.52;13.02;;;20.30;96.60;;;;;;5031194;28;20489;-70
2023/05/19 10:43:20;;;;;;;14.75;11.63;;;20.20;95.60;;;;;;5015961;28;20467;-70
2023/05/19 10:45:48;;;;;;;12.82;11.60;;;20.40;95.60;;;;;;5015461;28;20064;-70
2023/05/19 10:48:18;;;;;;;14.20;11.27;;;20.10;94.00;;;;;;5045218;28;20499;-70
2023/05/19 10:50:45;;;;;;;15.48;11.50;;;20.20;94.10;;;;;;5048262;28;20029;-70
2023/05/19 10:53:19;;;;;;;13.43;11.40;;;20.30;94.60;;;;;;5030583;28;20029;-70
2023/05/19 10:55:54;;;;;;;13.45;11.77;;;20.40;93.70;;;;;;5032159;28;20056;-70
2023/05/19 10:58:37;;;;;;;15.70;12.10;;;20.40;94.10;;;;;;5031883;28;20061;-70
2023/05/19 11:01:06;;;;;;;14.63;12.80;;;20.60;93.70;;;;;;5030101;28;20394;-70
2023/05/19 11:03:47;;;;;;;12.70;11.48;;;20.60;93.10;;;;;;5033246;28;20486;-70
2023/05/19 11:06:20;;;;;;;15.05;11.15;;;20.60;92.40;;;;;;5031295;28;20044;-70
2023/05/19 11:08:46;;;;;;;11.32;10.23;;;20.60;91.50;;;;;;5014686;28;20165;-70
2023/05/19 11:11:16;;;;;;;16.75;11.20;;;20.50;90.70;;;;;;5020655;28;20034;-70
2023/05/19 11:13:54;;;;;;;11.43;10.18;;;20.60;91.00;;;;;;5032079;28;20036;-70
2023/05/19 11:16:33;;;;;;;11.23;10.10;;;20.60;90.40;;;;;;5031586;28;20505;-70
2023/05/19 11:18:59;;;;;;;12.90;11.10;;;20.40;90.60;;;;;;5011278;28;20053;-70
2023/05/19 11:21:51;;;;;;;9.20;8.38;;;20.10;91.60;;;;;;5022717;28;20029;-70
2023/05/19 11:24:39;;;;;;;11.27;10.05;;;20.30;91.70;;;;;;5032164;28;20037;-70
2023/05/19 11:27:23;;;;;;;12.05;10.23;;;20.30;89.10;;;;;;5028980;28;20040;-70
2023/05/19 11:29:52;;;;;;;15.70;12.55;;;20.10;90.80;;;;;;5064481;28;20041;-70
2023/05/19 11:32:25;;;;;;;15.00;11.18;;;20.30;90.50;;;;;;5037946;28;20033;-70
2023/05/19 11:34:51;;;;;;;11.73;9.80;;;20.50;91.20;;;;;;5014860;28;20045;-70
2023/05/19 11:37:17;;;;;;;14.05;12.00;;;20.40;90.30;;;;;;5031725;28;20030;-70
2023/05/19 11:39:45;;;;;;;14.27;11.52;;;20.50;90.40;;;;;;5033183;28;20045;-70
2023/05/19 11:42:11;;;;;;;14.23;10.43;;;20.70;90.40;;;;;;5032405;28;20458;-70
2023/05/19 11:44:37;;;;;;;12.20;11.02;;;21.00;85.90;;;;;;5032359;28;20029;-70
2023/05/19 11:47:04;;;;;;;11.73;10.57;;;21.00;87.70;;;;;;5036013;28;20045;-70
2023/05/19 11:49:30;;;;;;;12.60;11.40;;;21.00;84.70;;;;;;5051356;28;20056;-70
2023/05/19 11:51:56;;;;;;;12.07;10.98;;;21.10;83.30;;;;;;5036662;28;20041;-70
2023/05/19 11:54:31;;;;;;;13.10;10.63;;;21.00;85.00;;;;;;5032240;28;20029;-70
2023/05/19 11:57:00;;;;;;;17.48;12.57;;;21.10;83.80;;;;;;5031369;28;20022;-70
2023/05/19 11:59:31;;;;;;;11.88;10.60;;;21.20;83.30;;;;;;5015045;28;20056;-71
2023/05/19 12:02:00;;;;;;;12.63;11.32;;;21.20;83.50;;;;;;5032178;28;20037;-70
2023/05/19 12:04:26;;;;;;;13.60;10.55;;;21.20;83.70;;;;;;5030894;28;20021;-70
2023/05/19 12:06:52;;;;;;;15.20;12.10;;;21.00;84.10;;;;;;5032346;28;20363;-70
2023/05/19 12:09:18;;;;;;;14.00;12.50;;;21.00;86.10;;;;;;5031958;28;20041;-70
2023/05/19 12:11:44;;;;;;;11.95;10.68;;;21.20;86.60;;;;;;5030546;28;20033;-70
2023/05/19 12:14:11;;;;;;;9.60;8.77;;;21.20;86.30;;;;;;5030391;28;20033;-70
2023/05/19 12:16:37;;;;;;;11.30;9.80;;;21.00;84.60;;;;;;5029738;28;20038;-70
2023/05/19 12:19:06;;;;;;;11.60;10.38;;;20.90;84.00;;;;;;5032165;28;20044;-70
2023/05/19 12:21:32;;;;;;;10.73;9.10;;;20.80;82.80;;;;;;5032509;28;20037;-70
2023/05/19 12:23:58;;;;;;;10.13;9.32;;;20.80;79.70;;;;;;5030327;28;20417;-69
2023/05/19 12:26:24;;;;;;;14.02;10.02;;;20.80;81.40;;;;;;5031408;28;20375;-70
2023/05/19 12:28:51;;;;;;;12.73;10.73;;;21.00;80.00;;;;;;5031012;28;20040;-70
2023/05/19 12:31:18;;;;;;;10.45;9.60;;;21.20;84.80;;;;;;5031602;28;20034;-70
2023/05/19 12:33:47;;;;;;;11.23;10.23;;;21.40;81.40;;;;;;5029984;28;20052;-70
2023/05/19 12:36:13;;;;;;;11.15;10.10;;;21.40;81.10;;;;;;5030916;28;20029;-70
2023/05/19 12:38:41;;;;;;;11.18;9.98;;;21.40;82.00;;;;;;5013975;28;20045;-70
2023/05/19 12:41:07;;;;;;;14.45;10.50;;;21.60;82.20;;;;;;5031712;28;20032;-70